createdAt,value
2018-12-11T00:02:05.802Z,87.61
2018-12-11T00:04:34.505Z,87.70
2018-12-11T00:07:03.691Z,87.69
2018-12-11T00:09:32.395Z,87.75
2018-12-11T00:12:01.203Z,87.54
2018-12-11T00:14:29.928Z,87.48
2018-12-11T00:16:58.755Z,87.55
2018-12-11T00:19:27.635Z,87.33
2018-12-11T00:21:56.429Z,87.20
2018-12-11T00:24:25.304Z,87.73
2018-12-11T00:26:54.315Z,87.01
2018-12-11T00:29:23.308Z,87.88
2018-12-11T00:31:52.224Z,87.19
2018-12-11T00:34:21.071Z,87.29
2018-12-11T00:36:49.724Z,87.11
2018-12-11T00:39:18.587Z,87.16
2018-12-11T00:41:47.461Z,87.47
2018-12-11T00:44:16.477Z,86.93
2018-12-11T00:46:45.380Z,87.25
2018-12-11T00:49:14.194Z,87.30
2018-12-11T00:51:42.833Z,87.37
2018-12-11T00:54:11.551Z,87.22
2018-12-11T00:56:43.194Z,87.36
2018-12-11T00:59:12.094Z,86.87
2018-12-11T01:01:40.872Z,87.48
2018-12-11T01:04:09.602Z,87.27
2018-12-11T01:06:38.280Z,87.36
2018-12-11T01:09:07.704Z,87.07
2018-12-11T01:11:36.437Z,86.73
2018-12-11T01:14:05.160Z,86.85
2018-12-11T01:16:33.763Z,87.23
2018-12-11T01:19:02.593Z,87.06
2018-12-11T01:21:31.627Z,87.28
2018-12-11T01:24:00.444Z,86.97
2018-12-11T01:26:29.384Z,87.09
2018-12-11T01:28:58.263Z,87.14
2018-12-11T01:31:26.886Z,87.15
2018-12-11T01:33:55.550Z,87.54
2018-12-11T01:36:24.339Z,87.36
2018-12-11T01:38:53.138Z,87.26
2018-12-11T01:41:21.867Z,87.78
2018-12-11T01:43:50.495Z,87.76
2018-12-11T01:46:19.259Z,87.78
2018-12-11T01:48:48.501Z,87.44
2018-12-11T01:51:17.191Z,87.76
2018-12-11T01:53:46.031Z,87.86
2018-12-11T01:56:14.831Z,87.30
2018-12-11T01:58:43.511Z,88.04
2018-12-11T02:01:12.178Z,87.69
2018-12-11T02:03:40.803Z,87.59
2018-12-11T02:06:09.384Z,87.29
2018-12-11T02:08:38.450Z,87.52
2018-12-11T02:11:07.284Z,87.31
2018-12-11T02:13:36.103Z,87.67
2018-12-11T02:16:05.335Z,87.51
2018-12-11T02:18:34.249Z,87.80
2018-12-11T02:21:03.049Z,87.53
2018-12-11T02:23:31.980Z,87.99
2018-12-11T02:26:01.175Z,87.97
2018-12-11T02:28:30.086Z,87.68
2018-12-11T02:30:59.071Z,87.73
2018-12-11T02:33:28.219Z,87.54
2018-12-11T02:35:57.331Z,87.70
2018-12-11T02:38:26.293Z,87.51
2018-12-11T02:40:55.326Z,87.51
2018-12-11T02:43:24.138Z,87.94
2018-12-11T02:45:53.060Z,88.06
2018-12-11T02:48:21.736Z,88.07
2018-12-11T02:50:50.511Z,88.24
2018-12-11T02:53:19.218Z,88.28
2018-12-11T02:55:48.365Z,87.83
2018-12-11T02:58:17.105Z,87.72
2018-12-11T03:00:46.186Z,87.90
2018-12-11T03:03:15.257Z,87.78
2018-12-11T03:05:44.137Z,87.58
2018-12-11T03:08:12.965Z,87.31
2018-12-11T03:10:41.816Z,86.93
2018-12-11T03:13:10.540Z,87.01
2018-12-11T03:15:39.400Z,87.31
2018-12-11T03:18:08.097Z,86.98
2018-12-11T03:20:36.814Z,87.30
2018-12-11T03:23:05.426Z,87.31
2018-12-11T03:25:34.319Z,86.83
2018-12-11T03:28:03.246Z,86.55
2018-12-11T03:30:32.143Z,86.49
2018-12-11T03:33:01.019Z,86.62
2018-12-11T03:35:29.641Z,86.43
2018-12-11T03:37:58.313Z,85.97
2018-12-11T03:40:27.226Z,86.48
2018-12-11T03:42:55.992Z,86.45
2018-12-11T03:45:24.859Z,86.54
2018-12-11T03:47:53.852Z,86.51
2018-12-11T03:50:22.779Z,86.11
2018-12-11T03:52:51.571Z,85.62
2018-12-11T03:55:20.509Z,86.22
2018-12-11T03:57:49.233Z,85.95
2018-12-11T04:00:18.036Z,86.29
2018-12-11T04:02:46.693Z,86.25
2018-12-11T04:05:15.402Z,86.20
2018-12-11T04:07:44.110Z,85.34
2018-12-11T04:10:12.980Z,86.18
2018-12-11T04:12:41.765Z,85.96
2018-12-11T04:15:10.925Z,86.11
2018-12-11T04:17:39.686Z,85.93
2018-12-11T04:20:08.753Z,86.00
2018-12-11T04:22:37.954Z,85.37
2018-12-11T04:25:07.861Z,85.99
2018-12-11T04:27:36.930Z,85.89
2018-12-11T04:30:07.426Z,86.02
2018-12-11T04:32:37.052Z,86.01
2018-12-11T04:35:06.343Z,86.09
2018-12-11T04:37:35.564Z,86.42
2018-12-11T04:40:04.952Z,86.38
2018-12-11T04:42:33.612Z,85.99
2018-12-11T04:45:02.395Z,86.46
2018-12-11T04:47:31.258Z,85.97
2018-12-11T04:50:00.235Z,86.29
2018-12-11T04:52:29.231Z,86.51
2018-12-11T04:54:57.886Z,86.59
2018-12-11T04:57:26.747Z,86.70
2018-12-11T04:59:55.419Z,85.64
2018-12-11T05:02:24.397Z,86.21
2018-12-11T05:04:53.196Z,85.81
2018-12-11T05:07:21.878Z,86.63
2018-12-11T05:09:50.811Z,86.61
2018-12-11T05:12:19.807Z,86.92
2018-12-11T05:14:48.687Z,86.34
2018-12-11T05:17:17.309Z,86.59
2018-12-11T05:19:45.987Z,86.25
2018-12-11T05:22:14.690Z,86.14
2018-12-11T05:24:43.422Z,85.99
2018-12-11T05:27:12.289Z,85.94
2018-12-11T05:29:41.194Z,86.08
2018-12-11T05:32:10.131Z,85.57
2018-12-11T05:34:38.955Z,86.03
2018-12-11T05:37:07.873Z,85.86
2018-12-11T05:39:36.615Z,85.86
2018-12-11T05:42:05.643Z,85.83
2018-12-11T05:44:34.372Z,85.70
2018-12-11T05:47:03.587Z,85.86
2018-12-11T05:49:32.428Z,85.74
2018-12-11T05:52:02.083Z,85.86
2018-12-11T05:54:30.753Z,85.58
2018-12-11T05:56:59.697Z,85.42
2018-12-11T05:59:28.652Z,85.72
2018-12-11T06:01:57.359Z,85.53
2018-12-11T06:04:26.073Z,85.55
2018-12-11T06:06:54.821Z,85.65
2018-12-11T06:09:23.576Z,85.76
2018-12-11T06:11:52.323Z,85.77
2018-12-11T06:14:21.592Z,85.72
2018-12-11T06:16:50.489Z,85.58
2018-12-11T06:19:19.317Z,85.41
2018-12-11T06:21:48.471Z,85.83
2018-12-11T06:24:17.457Z,85.69
2018-12-11T06:26:46.432Z,86.07
2018-12-11T06:29:15.209Z,85.98
2018-12-11T06:31:44.279Z,85.94
2018-12-11T06:34:13.015Z,85.88
2018-12-11T06:36:41.860Z,85.76
2018-12-11T06:39:10.924Z,85.75
2018-12-11T06:41:39.759Z,85.77
2018-12-11T06:44:08.854Z,86.12
2018-12-11T06:46:37.619Z,86.13
2018-12-11T06:49:06.525Z,85.99
2018-12-11T06:51:35.320Z,86.13
2018-12-11T06:54:04.077Z,86.37
2018-12-11T06:56:32.975Z,86.75
2018-12-11T06:59:01.818Z,86.44
2018-12-11T07:01:30.795Z,86.33
2018-12-11T07:03:59.695Z,86.36
2018-12-11T07:06:28.427Z,86.24
2018-12-11T07:08:57.329Z,85.85
2018-12-11T07:11:26.408Z,85.76
2018-12-11T07:13:55.485Z,86.16
2018-12-11T07:16:24.264Z,86.12
2018-12-11T07:18:53.298Z,85.86
2018-12-11T07:21:22.327Z,85.61
2018-12-11T07:23:51.197Z,85.57
2018-12-11T07:26:20.277Z,85.86
2018-12-11T07:28:49.252Z,85.55
2018-12-11T07:31:17.870Z,85.46
2018-12-11T07:33:50.870Z,85.56
2018-12-11T07:36:18.148Z,85.45
2018-12-11T07:38:47.126Z,85.03
2018-12-11T07:41:16.241Z,85.31
2018-12-11T07:43:45.059Z,85.04
2018-12-11T07:46:13.772Z,85.03
2018-12-11T07:48:42.740Z,84.66
2018-12-11T07:51:11.447Z,84.64
2018-12-11T07:53:40.381Z,84.66
2018-12-11T07:56:09.454Z,84.94
2018-12-11T07:58:38.788Z,85.39
2018-12-11T08:01:07.721Z,84.67
2018-12-11T08:03:36.717Z,84.89
2018-12-11T08:06:05.743Z,85.20
2018-12-11T08:08:34.568Z,84.53
2018-12-11T08:11:03.700Z,84.41
2018-12-11T08:13:32.551Z,84.69
2018-12-11T08:16:01.741Z,84.42
2018-12-11T08:18:30.598Z,84.26
2018-12-11T08:20:59.359Z,84.46
2018-12-11T08:23:28.374Z,84.08
2018-12-11T08:25:57.370Z,84.19
2018-12-11T08:28:26.247Z,84.92
2018-12-11T08:30:54.943Z,84.39
2018-12-11T08:33:23.711Z,84.26
2018-12-11T08:35:52.643Z,84.26
2018-12-11T08:38:21.505Z,83.81
2018-12-11T08:40:50.397Z,84.29
2018-12-11T08:43:19.459Z,83.99
2018-12-11T08:45:49.070Z,84.11
2018-12-11T08:48:17.927Z,84.03
2018-12-11T08:50:47.096Z,84.13
2018-12-11T08:53:16.043Z,84.05
2018-12-11T08:55:44.665Z,83.76
2018-12-11T08:58:13.521Z,83.66
2018-12-11T09:00:42.189Z,83.76
2018-12-11T09:03:11.184Z,83.75
2018-12-11T09:05:39.949Z,83.54
2018-12-11T09:08:08.636Z,83.75
2018-12-11T09:10:37.621Z,83.35
2018-12-11T09:13:06.373Z,83.06
2018-12-11T09:15:34.995Z,83.31
2018-12-11T09:18:04.026Z,83.02
2018-12-11T09:20:32.666Z,83.21
2018-12-11T09:23:01.521Z,83.10
2018-12-11T09:25:30.602Z,83.41
2018-12-11T09:27:59.381Z,83.33
2018-12-11T09:30:28.238Z,83.81
2018-12-11T09:32:57.143Z,83.66
2018-12-11T09:35:31.564Z,83.90
2018-12-11T09:38:00.315Z,83.95
2018-12-11T09:40:29.074Z,84.13
2018-12-11T09:42:57.755Z,84.42
2018-12-11T09:45:27.010Z,84.30
2018-12-11T09:47:55.723Z,83.90
2018-12-11T09:50:24.529Z,84.19
2018-12-11T09:52:53.465Z,83.92
2018-12-11T09:55:22.449Z,83.39
2018-12-11T09:57:51.055Z,83.56
2018-12-11T10:00:25.811Z,83.62
2018-12-11T10:02:50.793Z,83.17
2018-12-11T10:05:19.399Z,83.20
2018-12-11T10:07:48.055Z,83.14
2018-12-11T10:10:17.006Z,83.12
2018-12-11T10:12:45.705Z,82.90
2018-12-11T10:15:14.946Z,83.29
2018-12-11T10:17:43.888Z,83.27
2018-12-11T10:20:13.983Z,83.10
2018-12-11T10:22:42.732Z,83.25
2018-12-11T10:25:11.571Z,83.03
2018-12-11T10:27:40.605Z,83.32
2018-12-11T10:30:10.618Z,83.39
2018-12-11T10:32:39.781Z,83.03
2018-12-11T10:35:08.764Z,82.81
2018-12-11T10:37:37.703Z,82.96
2018-12-11T10:40:07.005Z,83.34
2018-12-11T10:42:35.841Z,83.73
2018-12-11T10:45:05.208Z,83.01
2018-12-11T10:47:34.477Z,83.26
2018-12-11T10:50:03.159Z,82.97
2018-12-11T10:52:32.351Z,82.96
2018-12-11T10:55:01.152Z,82.58
2018-12-11T10:57:30.099Z,82.92
2018-12-11T10:59:59.096Z,83.27
2018-12-11T11:02:28.526Z,83.21
2018-12-11T11:04:57.389Z,83.07
2018-12-11T11:07:26.387Z,82.89
2018-12-11T11:09:55.125Z,83.47
2018-12-11T11:12:24.019Z,83.33
2018-12-11T11:14:53.012Z,82.96
2018-12-11T11:17:21.707Z,83.41
2018-12-11T11:19:50.765Z,83.55
2018-12-11T11:22:19.478Z,83.36
2018-12-11T11:24:48.545Z,83.19
2018-12-11T11:27:17.389Z,83.27
2018-12-11T11:29:46.475Z,82.83
2018-12-11T11:32:15.348Z,82.74
2018-12-11T11:34:44.213Z,82.79
2018-12-11T11:37:12.799Z,82.64
2018-12-11T11:39:41.726Z,82.88
2018-12-11T11:42:10.874Z,82.96
2018-12-11T11:44:40.765Z,82.83
2018-12-11T11:47:10.329Z,83.27
2018-12-11T11:49:39.161Z,83.01
2018-12-11T11:52:07.958Z,83.28
2018-12-11T11:54:37.025Z,83.10
2018-12-11T11:57:05.919Z,83.03
2018-12-11T11:59:34.917Z,83.64
2018-12-11T12:02:03.791Z,83.66
2018-12-11T12:04:32.750Z,82.24
2018-12-11T12:07:01.633Z,82.11
2018-12-11T12:09:30.620Z,81.78
2018-12-11T12:11:59.329Z,82.03
2018-12-11T12:14:28.017Z,82.53
2018-12-11T12:16:57.017Z,82.51
2018-12-11T12:19:25.644Z,81.75
2018-12-11T12:21:54.729Z,82.19
2018-12-11T12:24:23.488Z,81.72
2018-12-11T12:26:52.313Z,81.77
2018-12-11T12:29:21.113Z,81.79
2018-12-11T12:31:50.002Z,81.52
2018-12-11T12:34:18.690Z,81.41
2018-12-11T12:36:47.539Z,81.78
2018-12-11T12:39:16.232Z,82.04
2018-12-11T12:41:45.124Z,82.27
2018-12-11T12:44:14.239Z,81.97
2018-12-11T12:46:43.675Z,82.01
2018-12-11T12:49:12.869Z,82.10
2018-12-11T12:51:41.663Z,82.53
2018-12-11T12:54:10.302Z,82.76
2018-12-11T12:56:39.248Z,82.44
2018-12-11T12:59:08.231Z,82.10
2018-12-11T13:01:37.044Z,82.74
2018-12-11T13:04:05.804Z,82.05
2018-12-11T13:06:34.921Z,82.16
2018-12-11T13:09:05.734Z,82.14
2018-12-11T13:11:34.765Z,82.61
2018-12-11T13:14:03.545Z,82.54
2018-12-11T13:16:32.458Z,82.22
2018-12-11T13:19:01.207Z,82.01
2018-12-11T13:21:30.416Z,82.07
2018-12-11T13:23:59.376Z,82.31
2018-12-11T13:26:28.384Z,82.29
2018-12-11T13:28:57.528Z,82.46
2018-12-11T13:31:26.634Z,81.74
2018-12-11T13:33:55.654Z,81.78
2018-12-11T13:36:24.537Z,82.54
2018-12-11T13:38:54.191Z,82.42
2018-12-11T13:41:23.106Z,82.19
2018-12-11T13:43:51.743Z,81.98
2018-12-11T13:46:20.456Z,81.62
2018-12-11T13:48:49.593Z,81.34
2018-12-11T13:51:18.882Z,81.99
2018-12-11T13:53:47.717Z,81.87
2018-12-11T13:56:16.926Z,82.16
2018-12-11T13:58:45.914Z,82.29
2018-12-11T14:01:14.898Z,81.46
2018-12-11T14:03:43.931Z,81.86
2018-12-11T14:06:12.756Z,81.79
2018-12-11T14:08:41.530Z,82.06
2018-12-11T14:11:10.170Z,82.17
2018-12-11T14:13:38.932Z,82.31
2018-12-11T14:16:07.740Z,82.01
2018-12-11T14:18:37.598Z,81.82
2018-12-11T14:21:06.860Z,82.34
2018-12-11T14:23:35.559Z,82.39
2018-12-11T14:26:04.569Z,82.39
2018-12-11T14:28:33.406Z,82.55
2018-12-11T14:31:02.701Z,82.86
2018-12-11T14:33:31.357Z,82.88
2018-12-11T14:36:00.351Z,83.25
2018-12-11T14:38:29.216Z,82.97
2018-12-11T14:40:57.951Z,83.55
2018-12-11T14:43:27.005Z,83.65
2018-12-11T14:45:56.023Z,83.85
2018-12-11T14:48:25.084Z,84.23
2018-12-11T14:50:53.931Z,84.35
2018-12-11T14:53:23.115Z,84.33
2018-12-11T14:55:51.900Z,83.55
2018-12-11T14:58:20.625Z,83.43
2018-12-11T15:00:49.686Z,83.88
2018-12-11T15:03:18.410Z,83.44
2018-12-11T15:05:47.093Z,83.14
2018-12-11T15:08:16.499Z,83.10
2018-12-11T15:10:45.432Z,82.42
2018-12-11T15:13:14.190Z,82.28
2018-12-11T15:15:43.070Z,82.57
2018-12-11T15:18:12.109Z,82.36
2018-12-11T15:20:41.159Z,82.07
2018-12-11T15:23:09.890Z,82.79
2018-12-11T15:25:38.721Z,82.90
2018-12-11T15:28:07.912Z,83.35
2018-12-11T15:30:36.693Z,83.82
2018-12-11T15:33:06.170Z,84.05
2018-12-11T15:35:35.157Z,84.67
2018-12-11T15:38:04.309Z,85.17
2018-12-11T15:40:33.300Z,85.48
2018-12-11T15:43:02.534Z,86.06
2018-12-11T15:45:31.587Z,85.81
2018-12-11T15:48:00.559Z,86.81
2018-12-11T15:50:29.558Z,86.96
2018-12-11T15:52:58.431Z,86.94
2018-12-11T15:55:27.779Z,87.10
2018-12-11T15:57:56.559Z,87.01
2018-12-11T16:00:25.244Z,87.19
2018-12-11T16:02:54.404Z,86.94
2018-12-11T16:05:23.574Z,86.55
2018-12-11T16:07:52.586Z,86.42
2018-12-11T16:10:21.741Z,86.47
2018-12-11T16:12:50.801Z,86.24
2018-12-11T16:15:19.657Z,86.38
2018-12-11T16:17:49.163Z,86.79
2018-12-11T16:20:18.062Z,87.10
2018-12-11T16:22:47.024Z,87.20
2018-12-11T16:25:15.987Z,86.87
2018-12-11T16:27:45.129Z,87.14
2018-12-11T16:30:14.010Z,87.09
2018-12-11T16:32:43.655Z,87.12
2018-12-11T16:35:12.734Z,86.93
2018-12-11T16:37:41.910Z,87.01
2018-12-11T16:40:10.912Z,86.89
2018-12-11T16:42:39.614Z,86.68
2018-12-11T16:45:08.702Z,86.31
2018-12-11T16:47:37.336Z,86.16
2018-12-11T16:50:06.417Z,86.23
2018-12-11T16:52:35.203Z,86.10
2018-12-11T16:55:04.363Z,86.10
2018-12-11T16:57:33.266Z,85.76
2018-12-11T17:00:02.240Z,85.78
2018-12-11T17:02:31.529Z,85.58
2018-12-11T17:05:00.484Z,85.82
2018-12-11T17:07:29.690Z,85.72
2018-12-11T17:09:58.809Z,85.83
2018-12-11T17:12:28.165Z,86.18
2018-12-11T17:14:58.934Z,85.81
2018-12-11T17:17:28.490Z,86.05
2018-12-11T17:19:57.515Z,85.98
2018-12-11T17:22:26.609Z,86.54
2018-12-11T17:24:55.480Z,86.18
2018-12-11T17:27:24.681Z,86.13
2018-12-11T17:29:53.805Z,86.09
2018-12-11T17:32:22.539Z,86.22
2018-12-11T17:34:51.270Z,86.04
2018-12-11T17:37:20.055Z,86.47
2018-12-11T17:39:49.860Z,86.76
2018-12-11T17:42:18.910Z,86.48
2018-12-11T17:44:47.686Z,86.83
2018-12-11T17:47:16.369Z,86.42
2018-12-11T17:49:45.111Z,86.89
2018-12-11T17:52:13.828Z,86.82
2018-12-11T17:54:42.684Z,86.65
2018-12-11T17:57:11.826Z,86.90
2018-12-11T17:59:40.688Z,86.73
2018-12-11T18:02:12.108Z,86.71
2018-12-11T18:04:41.236Z,86.84
2018-12-11T18:07:10.337Z,87.09
2018-12-11T18:09:40.223Z,86.72
2018-12-11T18:12:09.382Z,87.10
2018-12-11T18:14:41.375Z,86.43
2018-12-11T18:17:10.067Z,86.32
2018-12-11T18:19:39.192Z,87.02
2018-12-11T18:22:12.606Z,86.56
2018-12-11T18:24:44.831Z,87.13
2018-12-11T18:27:14.420Z,87.06
2018-12-11T18:29:43.881Z,86.61
2018-12-11T18:32:13.809Z,86.62
2018-12-11T18:34:45.087Z,86.72
2018-12-11T18:37:14.445Z,86.80
2018-12-11T18:39:43.327Z,86.40
2018-12-11T18:42:11.995Z,87.15
2018-12-11T18:44:40.742Z,86.15
2018-12-11T18:47:09.535Z,85.99
2018-12-11T18:49:38.386Z,86.22
2018-12-11T18:52:07.548Z,86.16
2018-12-11T18:54:36.267Z,86.05
2018-12-11T18:57:05.009Z,86.07
2018-12-11T18:59:34.320Z,86.10
2018-12-11T19:02:03.268Z,86.38
2018-12-11T19:04:32.051Z,86.26
2018-12-11T19:07:00.909Z,86.12
2018-12-11T19:09:29.664Z,86.14
2018-12-11T19:11:58.579Z,86.54
2018-12-11T19:14:27.759Z,86.21
2018-12-11T19:16:56.626Z,86.11
2018-12-11T19:19:26.301Z,86.19
2018-12-11T19:21:55.544Z,85.98
2018-12-11T19:24:33.100Z,86.41
2018-12-11T19:27:02.611Z,85.92
2018-12-11T19:29:32.775Z,86.27
2018-12-11T19:32:02.220Z,86.00
2018-12-11T19:34:31.455Z,85.80
2018-12-11T19:37:00.586Z,86.28
2018-12-11T19:39:29.841Z,85.86
2018-12-11T19:41:58.948Z,85.94
2018-12-11T19:44:27.996Z,86.27
2018-12-11T19:46:57.307Z,86.05
2018-12-11T19:49:26.482Z,85.83
2018-12-11T19:51:55.871Z,86.70
2018-12-11T19:54:24.890Z,86.66
2018-12-11T19:56:53.927Z,86.53
2018-12-11T19:59:22.967Z,86.48
2018-12-11T20:01:52.185Z,86.34
2018-12-11T20:04:21.723Z,86.34
2018-12-11T20:06:51.072Z,86.44
2018-12-11T20:09:20.249Z,85.97
2018-12-11T20:11:50.727Z,85.89
2018-12-11T20:14:20.253Z,85.46
2018-12-11T20:16:50.232Z,85.81
2018-12-11T20:19:19.436Z,86.05
2018-12-11T20:21:49.381Z,85.47
2018-12-11T20:24:18.626Z,85.67
2018-12-11T20:26:48.267Z,85.78
2018-12-11T20:29:17.670Z,86.13
2018-12-11T20:31:46.981Z,85.99
2018-12-11T20:34:16.181Z,86.25
2018-12-11T20:36:45.546Z,86.07
2018-12-11T20:39:14.635Z,86.34
2018-12-11T20:41:43.771Z,86.48
2018-12-11T20:44:12.962Z,85.74
2018-12-11T20:46:42.227Z,85.67
2018-12-11T20:49:12.426Z,86.16
2018-12-11T20:51:41.606Z,86.02
2018-12-11T20:54:11.198Z,85.85
2018-12-11T20:56:41.208Z,85.96
2018-12-11T20:59:10.342Z,86.22
2018-12-11T21:01:39.690Z,86.17
2018-12-11T21:04:09.813Z,86.07
2018-12-11T21:06:39.023Z,86.38
2018-12-11T21:09:12.377Z,86.18
2018-12-11T21:11:41.808Z,86.31
2018-12-11T21:14:11.251Z,86.02
2018-12-11T21:16:40.277Z,85.58
2018-12-11T21:19:09.726Z,85.68
2018-12-11T21:21:39.114Z,85.75
2018-12-11T21:24:08.442Z,85.30
2018-12-11T21:26:38.099Z,85.69
2018-12-11T21:29:07.605Z,85.76
2018-12-11T21:31:37.069Z,85.48
2018-12-11T21:34:05.892Z,85.28
2018-12-11T21:36:34.725Z,85.89
2018-12-11T21:39:06.076Z,85.48
2018-12-11T21:41:35.093Z,85.56
2018-12-11T21:44:03.801Z,85.18
2018-12-11T21:46:32.861Z,85.59
2018-12-11T21:49:01.848Z,85.23
2018-12-11T21:51:30.584Z,85.60
2018-12-11T21:53:59.496Z,85.71
2018-12-11T21:56:28.576Z,85.71
2018-12-11T21:58:57.234Z,85.68
2018-12-11T22:01:25.900Z,85.35
2018-12-11T22:03:54.598Z,85.07
2018-12-11T22:06:23.750Z,85.19
2018-12-11T22:08:52.476Z,84.90
2018-12-11T22:11:21.297Z,84.70
2018-12-11T22:13:50.011Z,84.70
2018-12-11T22:16:18.689Z,84.83
2018-12-11T22:18:47.552Z,85.15
2018-12-11T22:21:16.423Z,85.15
2018-12-11T22:23:45.118Z,85.62
2018-12-11T22:26:13.838Z,85.43
2018-12-11T22:28:42.894Z,85.68
2018-12-11T22:31:11.593Z,85.66
2018-12-11T22:33:40.460Z,85.53
2018-12-11T22:36:09.357Z,86.09
2018-12-11T22:38:38.341Z,85.63
2018-12-11T22:41:07.230Z,85.67
2018-12-11T22:43:35.934Z,85.91
2018-12-11T22:46:05.323Z,85.65
2018-12-11T22:48:34.576Z,85.16
2018-12-11T22:51:04.369Z,85.16
2018-12-11T22:53:33.254Z,85.73
2018-12-11T22:56:02.041Z,84.98
2018-12-11T22:58:30.867Z,85.31
2018-12-11T23:01:00.491Z,85.31
2018-12-11T23:03:29.535Z,85.37
2018-12-11T23:05:59.053Z,85.68
2018-12-11T23:08:27.732Z,85.57
2018-12-11T23:10:56.629Z,85.75
2018-12-11T23:13:25.704Z,85.86
2018-12-11T23:15:54.699Z,85.54
2018-12-11T23:18:23.405Z,85.84
2018-12-11T23:20:52.308Z,85.64
2018-12-11T23:23:21.278Z,85.39
2018-12-11T23:25:50.204Z,85.27
2018-12-11T23:28:19.101Z,84.82
2018-12-11T23:30:47.864Z,84.53
2018-12-11T23:33:16.851Z,84.36
2018-12-11T23:35:45.562Z,84.29
2018-12-11T23:38:14.243Z,84.22
2018-12-11T23:40:43.604Z,84.63
2018-12-11T23:43:12.904Z,84.52
2018-12-11T23:45:41.840Z,85.11
2018-12-11T23:48:10.624Z,84.93
2018-12-11T23:50:39.309Z,84.57
2018-12-11T23:53:08.410Z,84.42
2018-12-11T23:55:37.260Z,84.45
2018-12-11T23:58:06.364Z,84.54
